Time;durP1;ratioP1;P1;durP2;ratioP2;P2;SDS_P1;SDS_P2;PMS_P1;PMS_P2;Temp;Humidity;BMP_temperature;BMP_pressure;BME280_temperature;BME280_humidity;BME280_pressure;Samples;Min_cycle;Max_cycle;Signal;HPM_P1;HPM_P2
2021/12/15 00:01:05;;;;;;;;;;;24.30;99.90;;;;;;5067753;28;19917;-76
2021/12/15 00:03:31;;;;;;;;;;;24.20;99.90;;;;;;5070364;28;20015;-75
2021/12/15 00:05:58;;;;;;;;;;;24.20;99.90;;;;;;5067631;28;19920;-74
2021/12/15 00:08:25;;;;;;;;;;;24.40;99.90;;;;;;5069991;28;20434;-75
2021/12/15 00:10:51;;;;;;;;;;;24.50;99.90;;;;;;5068205;28;20490;-74
2021/12/15 00:13:19;;;;;;;;;;;24.60;99.90;;;;;;5069803;28;19919;-75
2021/12/15 00:15:46;;;;;;;;;;;24.70;99.90;;;;;;5069130;28;19913;-75
2021/12/15 00:18:13;;;;;;;;;;;24.70;99.90;;;;;;5068656;28;19913;-75
2021/12/15 00:20:41;;;;;;;;;;;24.80;99.90;;;;;;5069618;28;20322;-76
2021/12/15 00:23:08;;;;;;;;;;;24.80;99.90;;;;;;5068125;28;19982;-74
2021/12/15 00:25:37;;;;;;;;;;;24.80;99.90;;;;;;5069865;28;19912;-75
2021/12/15 00:28:04;;;;;;;;;;;25.00;99.90;;;;;;5067333;28;19916;-74
2021/12/15 00:30:31;;;;;;;;;;;25.00;99.90;;;;;;5069841;28;19912;-75
2021/12/15 00:32:58;;;;;;;;;;;25.20;99.90;;;;;;5067897;28;19932;-75
2021/12/15 00:35:25;;;;;;;;;;;25.50;99.90;;;;;;5069833;28;20382;-75
2021/12/15 00:37:53;;;;;;;;;;;25.70;99.90;;;;;;5068179;28;19916;-75
2021/12/15 00:40:21;;;;;;;;;;;26.20;99.90;;;;;;5070379;28;19916;-74
2021/12/15 00:42:47;;;;;;;;;;;26.50;99.90;;;;;;5067642;28;19928;-75
2021/12/15 00:45:14;;;;;;;;;;;26.90;99.90;;;;;;5062620;28;19916;-75
2021/12/15 00:47:43;;;;;;;;;;;27.10;99.90;;;;;;5052123;28;19913;-75
2021/12/15 00:50:10;;;;;;;;;;;27.30;99.90;;;;;;5033992;28;19913;-75
2021/12/15 00:52:38;;;;;;;;;;;27.30;99.90;;;;;;5048285;28;19913;-75
2021/12/15 00:55:07;;;;;;;;;;;27.50;99.90;;;;;;5033961;28;20360;-74
2021/12/15 00:57:34;;;;;;;;;;;27.70;99.90;;;;;;5047108;28;19924;-75
2021/12/15 01:00:03;;;;;;;;;;;28.20;99.90;;;;;;5052925;28;20356;-76
2021/12/15 01:02:30;;;;;;;;;;;28.30;99.90;;;;;;5052529;28;19950;-75
2021/12/15 01:04:56;;;;;;;;;;;28.10;99.90;;;;;;5051787;28;19923;-74
2021/12/15 01:07:23;;;;;;;;;;;28.30;99.90;;;;;;5052153;28;19913;-74
2021/12/15 01:09:53;;;;;;;;;;;28.20;99.90;;;;;;5068558;28;19925;-75
2021/12/15 01:20:35;;;;;;;;;;;28.90;99.90;;;;;;5061743;28;19923;-74
2021/12/15 01:23:07;;;;;;;;;;;29.10;99.60;;;;;;5071262;28;20328;-75
2021/12/15 01:25:56;;;;;;;;;;;28.90;99.90;;;;;;5071642;28;19958;-75
2021/12/15 01:28:23;;;;;;;;;;;29.10;99.90;;;;;;5057555;28;20075;-75
2021/12/15 01:30:51;;;;;;;;;;;29.40;99.70;;;;;;5071461;28;20325;-74
2021/12/15 01:33:18;;;;;;;;;;;29.50;99.50;;;;;;5074676;28;19913;-74
2021/12/15 01:35:46;;;;;;;;;;;29.30;99.80;;;;;;5075219;28;19956;-74
2021/12/15 01:38:14;;;;;;;;;;;29.00;99.90;;;;;;5074957;28;20279;-74
2021/12/15 01:40:43;;;;;;;;;;;29.10;99.80;;;;;;5075107;28;19962;-74
2021/12/15 01:43:22;;;;;;;;;;;28.90;99.80;;;;;;5074650;28;19920;-74
2021/12/15 01:48:37;;;;;;;;;;;28.60;99.90;;;;;;5064320;28;20425;-74
2021/12/15 01:51:05;;;;;;;;;;;28.30;99.90;;;;;;5075039;28;20378;-74
2021/12/15 01:53:32;;;;;;;;;;;27.90;99.90;;;;;;5074940;28;19920;-74
2021/12/15 01:55:59;;;;;;;;;;;27.70;99.90;;;;;;5074972;28;20069;-74
2021/12/15 01:58:26;;;;;;;;;;;27.40;99.90;;;;;;5074986;28;19913;-75
2021/12/15 02:00:55;;;;;;;;;;;27.30;99.90;;;;;;5075015;28;19993;-74
2021/12/15 02:03:23;;;;;;;;;;;27.10;99.90;;;;;;5075154;28;19921;-74
2021/12/15 02:05:50;;;;;;;;;;;27.20;99.90;;;;;;5077453;28;19912;-74
2021/12/15 02:08:17;;;;;;;;;;;27.20;99.90;;;;;;5070036;28;20046;-74
2021/12/15 02:10:45;;;;;;;;;;;27.20;99.90;;;;;;5055972;28;19923;-74
2021/12/15 02:13:14;;;;;;;;;;;27.10;99.90;;;;;;5056105;28;19913;-74
2021/12/15 02:15:46;;;;;;;;;;;27.00;99.90;;;;;;5055843;28;20584;-74
2021/12/15 02:18:15;;;;;;;;;;;26.90;99.90;;;;;;5056592;28;19916;-74
2021/12/15 02:20:44;;;;;;;;;;;26.80;99.90;;;;;;5071252;28;20004;-74
2021/12/15 02:23:12;;;;;;;;;;;26.80;99.90;;;;;;5056132;28;19974;-74
2021/12/15 02:25:39;;;;;;;;;;;26.80;99.90;;;;;;5055117;28;20008;-74
2021/12/15 02:28:07;;;;;;;;;;;27.00;99.90;;;;;;5055752;28;19925;-73
2021/12/15 02:38:37;;;;;;;;;;;26.80;99.90;;;;;;5056364;28;19935;-74
2021/12/15 02:41:09;;;;;;;;;;;26.70;99.90;;;;;;5055160;28;20351;-73
2021/12/15 02:43:36;;;;;;;;;;;26.70;99.90;;;;;;5055424;28;19967;-73
2021/12/15 02:46:04;;;;;;;;;;;26.50;99.90;;;;;;5055220;28;19920;-73
2021/12/15 02:48:30;;;;;;;;;;;26.40;99.90;;;;;;5055186;28;19940;-73
2021/12/15 02:50:57;;;;;;;;;;;26.40;99.90;;;;;;5055072;28;19927;-74
2021/12/15 02:53:24;;;;;;;;;;;26.50;99.60;;;;;;5055520;28;19913;-73
2021/12/15 02:55:52;;;;;;;;;;;26.50;99.80;;;;;;5054783;28;19919;-74
2021/12/15 02:58:20;;;;;;;;;;;26.50;99.90;;;;;;5055406;28;20398;-74
2021/12/15 03:01:12;;;;;;;;;;;26.50;99.40;;;;;;5054949;28;19932;-74
2021/12/15 03:06:32;;;;;;;;;;;26.50;99.50;;;;;;5054931;28;19958;-74
2021/12/15 03:17:13;;;;;;;;;;;26.60;99.50;;;;;;5061859;28;19936;-73
2021/12/15 03:19:40;;;;;;;;;;;26.50;99.90;;;;;;5072968;28;19912;-74
2021/12/15 03:22:06;;;;;;;;;;;26.50;99.90;;;;;;5072339;28;19971;-73
2021/12/15 03:24:33;;;;;;;;;;;26.60;99.90;;;;;;5073199;28;20023;-74
2021/12/15 03:27:05;;;;;;;;;;;26.60;99.90;;;;;;5072712;28;19912;-74
2021/12/15 03:35:18;;;;;;;;;;;26.50;99.90;;;;;;5072818;28;20014;-74
2021/12/15 03:37:55;;;;;;;;;;;26.50;99.90;;;;;;5072914;28;19912;-73
2021/12/15 03:40:39;;;;;;;;;;;26.50;99.90;;;;;;5072470;28;20010;-75
2021/12/15 03:43:08;;;;;;;;;;;26.40;99.90;;;;;;5072138;28;19920;-74
2021/12/15 03:45:55;;;;;;;;;;;26.50;99.90;;;;;;5072816;28;19924;-74
2021/12/15 03:48:26;;;;;;;;;;;26.50;99.90;;;;;;5071949;28;20327;-74
2021/12/15 03:50:56;;;;;;;;;;;26.50;99.90;;;;;;5072754;28;19912;-74
2021/12/15 03:53:23;;;;;;;;;;;26.40;99.90;;;;;;5071842;28;19983;-74
2021/12/15 03:55:50;;;;;;;;;;;26.60;99.90;;;;;;5071836;28;19912;-74
2021/12/15 03:58:21;;;;;;;;;;;26.50;99.90;;;;;;5071663;28;19920;-74
2021/12/15 04:00:54;;;;;;;;;;;26.50;99.90;;;;;;5072416;28;20140;-74
2021/12/15 04:03:22;;;;;;;;;;;26.50;99.90;;;;;;5071694;28;19924;-74
2021/12/15 04:05:49;;;;;;;;;;;26.50;99.90;;;;;;5071719;28;20291;-74
2021/12/15 04:08:16;;;;;;;;;;;26.50;99.90;;;;;;5071418;28;19912;-74
2021/12/15 04:10:43;;;;;;;;;;;26.50;99.90;;;;;;5061089;28;19954;-75
2021/12/15 04:13:12;;;;;;;;;;;26.50;99.90;;;;;;5071720;28;19909;-74
2021/12/15 04:18:36;;;;;;;;;;;26.40;99.90;;;;;;5055358;28;20377;-74
2021/12/15 04:21:04;;;;;;;;;;;26.50;99.90;;;;;;5072271;28;19909;-75
2021/12/15 04:23:31;;;;;;;;;;;26.50;99.90;;;;;;5071698;28;20019;-74
2021/12/15 04:25:59;;;;;;;;;;;26.60;99.90;;;;;;5072010;28;19991;-75
2021/12/15 04:28:28;;;;;;;;;;;26.60;99.90;;;;;;5071296;28;19921;-74
2021/12/15 04:30:56;;;;;;;;;;;26.50;99.50;;;;;;5071929;28;19923;-74
2021/12/15 04:33:30;;;;;;;;;;;26.50;99.60;;;;;;5071040;28;20275;-75
2021/12/15 04:35:57;;;;;;;;;;;26.60;99.90;;;;;;5071685;28;19920;-74
2021/12/15 04:38:25;;;;;;;;;;;26.70;99.40;;;;;;5070079;28;19916;-75
2021/12/15 04:40:52;;;;;;;;;;;26.60;99.60;;;;;;5071915;28;20345;-75
2021/12/15 04:43:19;;;;;;;;;;;26.70;99.80;;;;;;5071070;28;19986;-74
2021/12/15 04:45:46;;;;;;;;;;;26.60;98.70;;;;;;5071572;28;20400;-74
2021/12/15 04:48:14;;;;;;;;;;;26.30;98.90;;;;;;5071613;28;19943;-75
2021/12/15 04:50:41;;;;;;;;;;;26.30;99.10;;;;;;5071504;28;19981;-74
2021/12/15 04:53:08;;;;;;;;;;;26.30;98.80;;;;;;5071819;28;19913;-74
2021/12/15 04:55:36;;;;;;;;;;;26.30;98.90;;;;;;5071233;28;19921;-74
2021/12/15 04:58:05;;;;;;;;;;;26.20;98.80;;;;;;5071301;28;19915;-75
2021/12/15 05:00:33;;;;;;;;;;;26.10;98.60;;;;;;5071268;28;20380;-75
2021/12/15 05:03:00;;;;;;;;;;;26.10;98.90;;;;;;5071502;28;19943;-75
2021/12/15 05:05:28;;;;;;;;;;;26.10;98.90;;;;;;5070895;28;20418;-74
2021/12/15 05:07:55;;;;;;;;;;;26.20;98.60;;;;;;5074485;28;19954;-73
2021/12/15 05:10:22;;;;;;;;;;;26.20;98.10;;;;;;5075190;28;19920;-73
2021/12/15 05:12:49;;;;;;;;;;;26.20;98.50;;;;;;5075537;28;19962;-74
2021/12/15 05:15:17;;;;;;;;;;;26.30;98.10;;;;;;5075043;28;19973;-75
2021/12/15 05:17:44;;;;;;;;;;;26.40;97.90;;;;;;5075741;28;19916;-74
2021/12/15 05:20:11;;;;;;;;;;;26.50;97.50;;;;;;5074958;28;19912;-74
2021/12/15 05:22:38;;;;;;;;;;;26.40;97.30;;;;;;5075326;28;19923;-74
2021/12/15 05:25:07;;;;;;;;;;;26.30;97.20;;;;;;5074760;28;19916;-73
2021/12/15 05:27:34;;;;;;;;;;;26.30;96.80;;;;;;5075315;28;20307;-74
2021/12/15 05:30:01;;;;;;;;;;;26.30;96.90;;;;;;5075128;28;19918;-74
2021/12/15 05:32:28;;;;;;;;;;;26.30;97.00;;;;;;5075151;28;20382;-74
2021/12/15 05:34:58;;;;;;;;;;;26.20;97.30;;;;;;5075208;28;20313;-73
2021/12/15 05:37:25;;;;;;;;;;;26.20;97.80;;;;;;5074863;28;20003;-73
2021/12/15 05:39:53;;;;;;;;;;;26.20;97.70;;;;;;5074849;28;20339;-73
2021/12/15 05:42:21;;;;;;;;;;;26.20;98.50;;;;;;5074083;28;19938;-73
2021/12/15 05:44:49;;;;;;;;;;;26.20;97.90;;;;;;5075259;28;19922;-74
2021/12/15 05:47:16;;;;;;;;;;;26.30;97.70;;;;;;5074562;28;19916;-74
2021/12/15 05:49:43;;;;;;;;;;;26.20;97.80;;;;;;5075079;28;19913;-74
2021/12/15 05:52:10;;;;;;;;;;;26.20;97.60;;;;;;5071952;28;19936;-74
2021/12/15 05:54:37;;;;;;;;;;;26.30;97.90;;;;;;5072819;28;20313;-72
2021/12/15 05:57:04;;;;;;;;;;;26.30;97.80;;;;;;5072147;28;19970;-72
2021/12/15 05:59:31;;;;;;;;;;;26.40;97.70;;;;;;5072734;28;19917;-73
2021/12/15 06:01:58;;;;;;;;;;;26.20;98.10;;;;;;5072030;28;19941;-73
2021/12/15 06:04:24;;;;;;;;;;;26.20;98.30;;;;;;5072288;28;19931;-73
2021/12/15 06:06:51;;;;;;;;;;;26.30;98.60;;;;;;5067885;28;19913;-72
2021/12/15 06:09:18;;;;;;;;;;;26.30;97.70;;;;;;5072138;28;20023;-72
2021/12/15 06:11:49;;;;;;;;;;;26.20;98.10;;;;;;5072279;28;19923;-72
2021/12/15 06:14:23;;;;;;;;;;;26.10;98.00;;;;;;5072368;28;20371;-73
2021/12/15 06:16:53;;;;;;;;;;;26.00;98.20;;;;;;5072126;28;20007;-73
2021/12/15 06:19:20;;;;;;;;;;;25.90;98.50;;;;;;5071237;28;20014;-73
2021/12/15 06:21:47;;;;;;;;;;;25.90;98.70;;;;;;5071394;28;20049;-72
2021/12/15 06:24:14;;;;;;;;;;;26.00;98.80;;;;;;5071674;28;19924;-74
2021/12/15 06:26:40;;;;;;;;;;;26.10;99.00;;;;;;5072072;28;19916;-72
2021/12/15 06:29:07;;;;;;;;;;;26.10;98.90;;;;;;5071475;28;19916;-73
2021/12/15 06:31:34;;;;;;;;;;;26.00;99.00;;;;;;5071993;28;20073;-73
2021/12/15 06:34:00;;;;;;;;;;;26.00;99.40;;;;;;5070922;28;20000;-72
2021/12/15 06:36:30;;;;;;;;;;;25.90;99.40;;;;;;5071649;28;20015;-72
2021/12/15 06:38:57;;;;;;;;;;;25.90;99.70;;;;;;5071435;28;19920;-71
2021/12/15 06:41:24;;;;;;;;;;;26.00;99.70;;;;;;5071880;28;19912;-72
2021/12/15 06:43:54;;;;;;;;;;;25.90;99.90;;;;;;5070883;28;19959;-72
2021/12/15 07:00:08;;;;;;;;;;;26.00;99.90;;;;;;5071044;28;20276;-73
2021/12/15 07:02:35;;;;;;;;;;;25.80;99.90;;;;;;5071136;28;19917;-73
2021/12/15 07:05:02;;;;;;;;;;;25.70;99.90;;;;;;5071463;28;19916;-73
2021/12/15 07:07:28;;;;;;;;;;;25.70;99.90;;;;;;5070317;28;20385;-73
2021/12/15 07:09:55;;;;;;;;;;;25.70;99.90;;;;;;5071221;28;20003;-73
2021/12/15 07:12:22;;;;;;;;;;;25.70;99.90;;;;;;5070572;28;20428;-73
2021/12/15 07:14:48;;;;;;;;;;;25.60;99.90;;;;;;5071434;28;19946;-73
2021/12/15 07:17:21;;;;;;;;;;;25.70;99.90;;;;;;5070875;28;19920;-73
2021/12/15 07:22:43;;;;;;;;;;;25.60;99.90;;;;;;5070707;28;19935;-74
2021/12/15 07:25:12;;;;;;;;;;;25.60;99.90;;;;;;5070927;28;19923;-74
2021/12/15 07:27:39;;;;;;;;;;;25.60;99.90;;;;;;5070230;28;19959;-73
2021/12/15 07:30:06;;;;;;;;;;;25.50;99.90;;;;;;5070295;28;19917;-73
2021/12/15 07:32:33;;;;;;;;;;;25.50;99.90;;;;;;5070451;28;20043;-73
2021/12/15 07:35:00;;;;;;;;;;;25.50;99.90;;;;;;5070979;28;19916;-73
2021/12/15 07:37:26;;;;;;;;;;;25.50;99.90;;;;;;5070267;28;19916;-73
2021/12/15 07:40:00;;;;;;;;;;;25.40;99.90;;;;;;5070725;28;19919;-74
2021/12/15 07:42:53;;;;;;;;;;;25.50;99.90;;;;;;5070059;28;20011;-73
2021/12/15 07:45:22;;;;;;;;;;;25.40;99.90;;;;;;5070661;28;19972;-73
2021/12/15 07:47:49;;;;;;;;;;;25.50;99.90;;;;;;5069255;28;19916;-72
2021/12/15 07:50:17;;;;;;;;;;;25.50;99.90;;;;;;5070243;28;20443;-74
2021/12/15 07:52:43;;;;;;;;;;;25.50;99.90;;;;;;5070092;28;19919;-73
2021/12/15 07:55:12;;;;;;;;;;;25.50;99.90;;;;;;5070500;28;19913;-73
2021/12/15 07:57:38;;;;;;;;;;;25.50;99.90;;;;;;5070198;28;19959;-74
2021/12/15 08:00:07;;;;;;;;;;;25.50;99.90;;;;;;5070020;28;20323;-74
2021/12/15 08:02:33;;;;;;;;;;;25.50;99.90;;;;;;5069896;28;20013;-74
2021/12/15 08:05:00;;;;;;;;;;;25.40;99.90;;;;;;5070409;28;19917;-74
2021/12/15 08:07:27;;;;;;;;;;;25.30;99.90;;;;;;5071932;28;19935;-74
2021/12/15 08:09:53;;;;;;;;;;;25.30;99.90;;;;;;5072083;28;19928;-74
2021/12/15 08:12:20;;;;;;;;;;;25.20;99.90;;;;;;5071804;28;19938;-74
2021/12/15 08:14:47;;;;;;;;;;;25.10;99.90;;;;;;5072150;28;19912;-73
2021/12/15 08:17:15;;;;;;;;;;;25.10;99.90;;;;;;5072206;28;19913;-73
2021/12/15 08:19:42;;;;;;;;;;;25.00;99.90;;;;;;5072019;28;19912;-74
2021/12/15 08:22:08;;;;;;;;;;;24.90;99.90;;;;;;5071824;28;19916;-74
2021/12/15 08:24:35;;;;;;;;;;;24.90;99.90;;;;;;5071603;28;19920;-73
2021/12/15 08:27:03;;;;;;;;;;;24.90;99.90;;;;;;5071904;28;20004;-73
2021/12/15 08:29:30;;;;;;;;;;;24.80;99.90;;;;;;5071532;28;19912;-73
2021/12/15 08:31:57;;;;;;;;;;;24.80;99.90;;;;;;5071942;28;19956;-74
2021/12/15 08:34:23;;;;;;;;;;;24.70;99.90;;;;;;5071566;28;19920;-73
2021/12/15 08:36:52;;;;;;;;;;;24.70;99.90;;;;;;5072126;28;19917;-73
2021/12/15 08:39:20;;;;;;;;;;;24.60;99.90;;;;;;5071750;28;20382;-79
2021/12/15 08:41:47;;;;;;;;;;;24.60;99.90;;;;;;5071714;28;19912;-73
2021/12/15 08:44:13;;;;;;;;;;;24.60;99.90;;;;;;5071348;28;20276;-75
2021/12/15 08:46:44;;;;;;;;;;;24.60;99.90;;;;;;5071877;28;19917;-73
2021/12/15 08:49:13;;;;;;;;;;;24.50;99.90;;;;;;5069930;28;20003;-73
2021/12/15 08:51:40;;;;;;;;;;;24.50;99.90;;;;;;5071433;28;19913;-74
2021/12/15 08:54:08;;;;;;;;;;;24.50;99.90;;;;;;5071244;28;19916;-74
2021/12/15 08:56:35;;;;;;;;;;;24.50;99.90;;;;;;5071574;28;19924;-73
2021/12/15 08:59:03;;;;;;;;;;;24.50;99.90;;;;;;5071827;28;19912;-74
2021/12/15 09:01:30;;;;;;;;;;;24.80;99.90;;;;;;5103805;28;19912;-75
2021/12/15 09:03:57;;;;;;;;;;;25.00;99.90;;;;;;5071398;28;19921;-74
2021/12/15 09:06:24;;;;;;;;;;;24.90;99.90;;;;;;5071289;28;19922;-75
2021/12/15 09:08:52;;;;;;;;;;;25.00;99.90;;;;;;5071604;28;20278;-76
2021/12/15 09:11:20;;;;;;;;;;;25.10;99.90;;;;;;5071094;28;20286;-75
2021/12/15 09:13:49;;;;;;;;;;;24.90;99.90;;;;;;5071681;28;19912;-75
2021/12/15 09:16:16;;;;;;;;;;;23.90;99.90;;;;;;5071113;28;19971;-74
2021/12/15 09:18:44;;;;;;;;;;;23.10;99.90;;;;;;5071741;28;19919;-76
2021/12/15 09:21:12;;;;;;;;;;;22.60;99.90;;;;;;5071150;28;20658;-78
2021/12/15 09:23:40;;;;;;;;;;;22.30;99.90;;;;;;5071378;28;19924;-77
2021/12/15 09:26:07;;;;;;;;;;;22.00;99.90;;;;;;5070571;28;20456;-76
2021/12/15 09:28:34;;;;;;;;;;;21.80;99.90;;;;;;5071457;28;19912;-78
2021/12/15 09:31:02;;;;;;;;;;;21.60;99.90;;;;;;5070926;28;19960;-76
2021/12/15 09:33:30;;;;;;;;;;;21.50;99.90;;;;;;5071580;28;19927;-76
2021/12/15 09:35:57;;;;;;;;;;;21.50;99.90;;;;;;5070858;28;19919;-79
2021/12/15 09:38:24;;;;;;;;;;;21.40;99.90;;;;;;5071435;28;19965;-78
2021/12/15 09:40:53;;;;;;;;;;;21.40;99.90;;;;;;5071082;28;20000;-77
2021/12/15 09:43:20;;;;;;;;;;;21.20;99.90;;;;;;5070725;28;20321;-78
2021/12/15 09:57:05;;;;;;;;;;;21.10;99.90;;;;;;5076022;28;19999;-78
2021/12/15 10:02:32;;;;;;;;;;;21.10;99.90;;;;;;5066835;28;19919;-79
2021/12/15 10:05:30;;;;;;;;;;;21.10;99.90;;;;;;5075121;28;19928;-78
2021/12/15 10:18:49;;;;;;;;;;;21.00;99.90;;;;;;5049263;28;19920;-78
2021/12/15 10:21:21;;;;;;;;;;;21.00;99.90;;;;;;5058874;28;19913;-77
2021/12/15 10:23:50;;;;;;;;;;;21.10;99.90;;;;;;5048938;28;19921;-76
2021/12/15 10:26:17;;;;;;;;;;;21.10;99.90;;;;;;5058950;28;19917;-77
2021/12/15 10:28:49;;;;;;;;;;;21.10;99.90;;;;;;5060020;28;20268;-77
2021/12/15 10:31:17;;;;;;;;;;;21.00;99.90;;;;;;5058609;28;19917;-77
2021/12/15 10:33:47;;;;;;;;;;;21.00;99.90;;;;;;5058432;28;19970;-78
2021/12/15 10:36:13;;;;;;;;;;;21.10;99.90;;;;;;5059239;28;19913;-75
2021/12/15 10:38:45;;;;;;;;;;;21.20;99.90;;;;;;5054011;28;20003;-77
2021/12/15 10:41:32;;;;;;;;;;;21.20;99.90;;;;;;5058953;28;19917;-76
2021/12/15 10:44:13;;;;;;;;;;;21.30;99.90;;;;;;5050655;28;19920;-78
2021/12/15 10:46:42;;;;;;;;;;;21.20;99.90;;;;;;5056765;28;19972;-78
2021/12/15 10:49:14;;;;;;;;;;;21.20;99.90;;;;;;5056088;28;19982;-79
2021/12/15 10:51:50;;;;;;;;;;;21.20;99.90;;;;;;5057814;28;19912;-79
2021/12/15 10:54:29;;;;;;;;;;;21.20;99.90;;;;;;5055781;28;19959;-78
2021/12/15 10:56:57;;;;;;;;;;;21.20;99.90;;;;;;5056782;28;19935;-78
2021/12/15 10:59:25;;;;;;;;;;;21.10;99.90;;;;;;5056828;28;20383;-78
2021/12/15 11:01:56;;;;;;;;;;;21.10;99.90;;;;;;5054661;28;20002;-78
2021/12/15 11:04:31;;;;;;;;;;;21.10;99.90;;;;;;5056565;28;19928;-78
2021/12/15 11:07:01;;;;;;;;;;;21.20;99.90;;;;;;5055672;28;19913;-78
2021/12/15 11:09:31;;;;;;;;;;;21.20;99.90;;;;;;5068444;28;19952;-77
2021/12/15 11:11:59;;;;;;;;;;;21.10;99.90;;;;;;5071071;28;20003;-77
2021/12/15 11:14:31;;;;;;;;;;;21.10;99.90;;;;;;5070557;28;20019;-76
2021/12/15 11:17:09;;;;;;;;;;;21.10;99.90;;;;;;5070594;28;20313;-79
2021/12/15 11:19:38;;;;;;;;;;;21.10;99.90;;;;;;5071390;28;20368;-78
2021/12/15 11:22:23;;;;;;;;;;;21.20;99.90;;;;;;5071131;28;19962;-78
2021/12/15 11:24:50;;;;;;;;;;;21.10;99.90;;;;;;5070752;28;20408;-78
2021/12/15 11:27:17;;;;;;;;;;;21.00;99.90;;;;;;5071242;28;19913;-79
2021/12/15 11:29:44;;;;;;;;;;;21.00;99.90;;;;;;5071203;28;19956;-79
2021/12/15 11:32:29;;;;;;;;;;;21.00;99.90;;;;;;5070973;28;19912;-79
2021/12/15 11:35:04;;;;;;;;;;;21.00;99.90;;;;;;5070923;28;19917;-80
2021/12/15 11:37:43;;;;;;;;;;;20.90;99.90;;;;;;5071273;28;19970;-81
2021/12/15 11:40:11;;;;;;;;;;;20.90;99.90;;;;;;5069177;28;19916;-80
2021/12/15 11:42:42;;;;;;;;;;;20.90;99.90;;;;;;5070714;28;19974;-80
2021/12/15 11:45:10;;;;;;;;;;;20.90;99.90;;;;;;5069092;28;19920;-80
2021/12/15 11:47:37;;;;;;;;;;;20.80;99.90;;;;;;5069096;28;20295;-80
2021/12/15 11:50:08;;;;;;;;;;;20.80;99.90;;;;;;5069994;28;20405;-80
2021/12/15 11:52:39;;;;;;;;;;;20.80;99.90;;;;;;5070400;28;19912;-78
2021/12/15 11:55:07;;;;;;;;;;;20.90;99.90;;;;;;5070062;28;19960;-81
2021/12/15 11:57:35;;;;;;;;;;;20.90;99.90;;;;;;5070580;28;19959;-79
2021/12/15 12:00:11;;;;;;;;;;;20.90;99.90;;;;;;5069564;28;19927;-80
2021/12/15 12:02:42;;;;;;;;;;;21.00;99.90;;;;;;5070342;28;20262;-81
2021/12/15 12:05:10;;;;;;;;;;;21.00;99.90;;;;;;5069749;28;19917;-78
2021/12/15 12:07:41;;;;;;;;;;;21.00;99.90;;;;;;5070028;28;19912;-78
2021/12/15 12:10:24;;;;;;;;;;;20.90;99.90;;;;;;5069431;28;19920;-79
2021/12/15 12:12:58;;;;;;;;;;;21.00;99.90;;;;;;5070389;28;19921;-77
2021/12/15 12:15:27;;;;;;;;;;;21.00;99.90;;;;;;5069285;28;19974;-79
2021/12/15 12:17:55;;;;;;;;;;;21.10;99.90;;;;;;5069950;28;19913;-78
2021/12/15 12:20:24;;;;;;;;;;;21.10;99.90;;;;;;5101925;28;19963;-80
2021/12/15 12:22:51;;;;;;;;;;;21.20;99.90;;;;;;5070003;28;20431;-76
2021/12/15 12:25:24;;;;;;;;;;;21.30;99.90;;;;;;5069524;28;19916;-77
2021/12/15 12:27:52;;;;;;;;;;;21.30;99.90;;;;;;5069698;28;19944;-76
2021/12/15 12:30:21;;;;;;;;;;;21.30;99.90;;;;;;5067983;28;20272;-75
2021/12/15 12:32:48;;;;;;;;;;;21.40;99.90;;;;;;5065463;28;19928;-77
2021/12/15 12:35:19;;;;;;;;;;;21.40;99.90;;;;;;5069293;28;19950;-77
2021/12/15 12:37:51;;;;;;;;;;;21.40;99.90;;;;;;5070073;28;19916;-78
2021/12/15 12:40:18;;;;;;;;;;;21.30;99.90;;;;;;5069445;28;19921;-75
2021/12/15 12:42:45;;;;;;;;;;;21.30;99.90;;;;;;5069773;28;20421;-79
2021/12/15 12:45:31;;;;;;;;;;;21.30;99.90;;;;;;5069128;28;19934;-75
2021/12/15 12:48:27;;;;;;;;;;;21.40;99.90;;;;;;5069660;28;19923;-76
2021/12/15 12:59:26;;;;;;;;;;;21.50;99.90;;;;;;5069680;28;19923;-77
2021/12/15 13:01:53;;;;;;;;;;;21.50;99.90;;;;;;5069278;28;19916;-76
2021/12/15 13:04:19;;;;;;;;;;;21.50;99.90;;;;;;5069746;28;19929;-76
2021/12/15 13:06:47;;;;;;;;;;;21.50;99.90;;;;;;5069324;28;20322;-78
2021/12/15 13:09:19;;;;;;;;;;;21.50;99.90;;;;;;5068614;28;19925;-76
2021/12/15 13:11:49;;;;;;;;;;;21.50;99.90;;;;;;5068941;28;19919;-76
2021/12/15 13:14:16;;;;;;;;;;;21.50;99.90;;;;;;5069083;28;19913;-78
2021/12/15 13:16:56;;;;;;;;;;;21.50;99.90;;;;;;5069557;28;20022;-76
2021/12/15 13:19:23;;;;;;;;;;;21.50;99.90;;;;;;5069726;28;20237;-76
2021/12/15 13:22:02;;;;;;;;;;;21.40;99.90;;;;;;5068965;28;19955;-76
2021/12/15 13:30:34;;;;;;;;;;;21.20;99.90;;;;;;5072868;28;19943;-76
2021/12/15 13:33:13;;;;;;;;;;;21.20;99.90;;;;;;5055586;28;19916;-78
2021/12/15 13:35:41;;;;;;;;;;;21.20;99.90;;;;;;5072818;28;20424;-76
2021/12/15 13:38:09;;;;;;;;;;;21.20;99.90;;;;;;5072881;28;19916;-78
2021/12/15 13:40:56;;;;;;;;;;;21.20;99.90;;;;;;5071976;28;19912;-77
2021/12/15 13:43:43;;;;;;;;;;;21.30;99.90;;;;;;5071309;28;19932;-78
2021/12/15 13:46:22;;;;;;;;;;;21.30;99.90;;;;;;5064627;28;19974;-75
2021/12/15 13:48:55;;;;;;;;;;;21.20;99.90;;;;;;5072621;28;19931;-78
2021/12/15 13:51:40;;;;;;;;;;;21.20;99.90;;;;;;5072684;28;20422;-79
2021/12/15 13:54:20;;;;;;;;;;;21.30;99.90;;;;;;5072266;28;19948;-78
2021/12/15 13:56:48;;;;;;;;;;;21.20;99.90;;;;;;5072768;28;19928;-76
2021/12/15 13:59:47;;;;;;;;;;;21.20;99.90;;;;;;5072654;28;19920;-76
2021/12/15 14:02:20;;;;;;;;;;;21.20;99.90;;;;;;5009884;28;19965;-75
2021/12/15 14:04:48;;;;;;;;;;;21.20;99.90;;;;;;5017582;28;19924;-76
2021/12/15 14:07:33;;;;;;;;;;;21.20;99.90;;;;;;5072353;28;19986;-77
2021/12/15 14:10:17;;;;;;;;;;;21.20;99.90;;;;;;5072223;28;19924;-77
2021/12/15 14:12:47;;;;;;;;;;;21.20;99.90;;;;;;5104994;28;19912;-76
2021/12/15 14:15:33;;;;;;;;;;;21.20;99.90;;;;;;5072659;28;19912;-74
2021/12/15 14:18:03;;;;;;;;;;;21.20;99.90;;;;;;5071909;28;19917;-75
2021/12/15 14:20:31;;;;;;;;;;;21.30;99.90;;;;;;5072049;28;19917;-74
2021/12/15 14:23:04;;;;;;;;;;;21.30;99.90;;;;;;5072421;28;19921;-74
2021/12/15 14:25:34;;;;;;;;;;;21.20;99.90;;;;;;5072040;28;20006;-75
2021/12/15 14:28:07;;;;;;;;;;;21.10;99.90;;;;;;5072558;28;19913;-75
2021/12/15 14:30:33;;;;;;;;;;;21.10;99.90;;;;;;5072083;28;20383;-74
2021/12/15 14:33:00;;;;;;;;;;;21.10;99.90;;;;;;5072713;28;19916;-76
2021/12/15 14:35:27;;;;;;;;;;;21.10;99.90;;;;;;5072461;28;19942;-75
2021/12/15 14:37:53;;;;;;;;;;;21.10;99.90;;;;;;5072955;28;19966;-75
2021/12/15 14:40:21;;;;;;;;;;;21.10;99.90;;;;;;5074206;28;19912;-77
2021/12/15 14:42:48;;;;;;;;;;;21.10;99.90;;;;;;5071913;28;19923;-78
2021/12/15 14:45:15;;;;;;;;;;;21.00;99.90;;;;;;5072198;28;20442;-78
2021/12/15 14:47:43;;;;;;;;;;;20.90;99.90;;;;;;5072145;28;19924;-75
2021/12/15 14:50:18;;;;;;;;;;;20.90;99.90;;;;;;5072232;28;20374;-77
2021/12/15 14:52:47;;;;;;;;;;;21.00;99.90;;;;;;5071610;28;19966;-77
2021/12/15 14:55:19;;;;;;;;;;;20.90;99.90;;;;;;5071609;28;19923;-77
2021/12/15 14:57:46;;;;;;;;;;;20.90;99.90;;;;;;5070921;28;19919;-75
2021/12/15 15:00:18;;;;;;;;;;;20.80;99.90;;;;;;5071433;28;19966;-77
2021/12/15 15:02:48;;;;;;;;;;;20.80;99.90;;;;;;5071447;28;19927;-77
2021/12/15 15:05:15;;;;;;;;;;;20.80;99.90;;;;;;5071664;28;19931;-78
2021/12/15 15:07:43;;;;;;;;;;;20.80;99.90;;;;;;5071145;28;20008;-77
2021/12/15 15:10:11;;;;;;;;;;;20.80;99.90;;;;;;5070747;28;19928;-78
2021/12/15 15:12:39;;;;;;;;;;;20.80;99.90;;;;;;5071130;28;19917;-76
2021/12/15 15:15:12;;;;;;;;;;;20.80;99.90;;;;;;5071279;28;20033;-76
2021/12/15 15:18:01;;;;;;;;;;;20.80;99.90;;;;;;5071235;28;19920;-75
2021/12/15 15:20:28;;;;;;;;;;;20.80;99.90;;;;;;5070967;28;19943;-76
2021/12/15 15:22:56;;;;;;;;;;;20.90;99.90;;;;;;5070565;28;20011;-78
2021/12/15 15:25:24;;;;;;;;;;;20.90;99.90;;;;;;5071222;28;19924;-78
2021/12/15 15:27:56;;;;;;;;;;;20.90;99.90;;;;;;5070732;28;19913;-77
2021/12/15 15:30:25;;;;;;;;;;;20.90;99.90;;;;;;5071149;28;20398;-76
2021/12/15 15:32:53;;;;;;;;;;;20.90;99.90;;;;;;5070855;28;20551;-76
2021/12/15 15:35:22;;;;;;;;;;;20.90;99.90;;;;;;5070502;28;20362;-78
2021/12/15 15:37:51;;;;;;;;;;;20.90;99.90;;;;;;5070295;28;19962;-79
2021/12/15 15:40:27;;;;;;;;;;;20.90;99.90;;;;;;5070903;28;19938;-76
2021/12/15 15:42:56;;;;;;;;;;;20.90;99.90;;;;;;5070795;28;20287;-78
2021/12/15 15:45:25;;;;;;;;;;;20.90;99.90;;;;;;5072706;28;19924;-77
2021/12/15 15:47:53;;;;;;;;;;;20.90;99.90;;;;;;5072191;28;19920;-77
2021/12/15 15:50:20;;;;;;;;;;;20.90;99.90;;;;;;5072061;28;20005;-76
2021/12/15 15:52:49;;;;;;;;;;;20.80;99.90;;;;;;5072227;28;19912;-76
2021/12/15 15:55:16;;;;;;;;;;;20.70;99.90;;;;;;5072488;28;20284;-76
2021/12/15 15:57:53;;;;;;;;;;;20.70;99.90;;;;;;5072140;28;20375;-76
2021/12/15 16:00:21;;;;;;;;;;;20.60;99.90;;;;;;5072291;28;19913;-77
2021/12/15 16:02:48;;;;;;;;;;;20.60;99.90;;;;;;5071943;28;20248;-79
2021/12/15 16:05:15;;;;;;;;;;;20.70;99.90;;;;;;5072327;28;19920;-78